Weather at Dutch Gap Airstrip

Public forecast

Using degrees Fahrenheit for public forecast. Weather courtesy of forecast.io.

Closest aviation weather report (METAR) to Dutch Gap Airstrip

Closest report is Kenosha Regional Airport, 5.9 nm (10.8 km) NE. Retrieved 2021/06/25 02:53 UTC (9 minutes ago):

KENW 250253Z AUTO 20007KT 10SM BKN014 OVC090 22/19 A2995 RMK AO2 SLP139 T02220194 53005

Closest aviation forecast (TAF) to Dutch Gap Airstrip

Closest forecast is Kenosha Regional Airport, 5.9 nm (10.8 km) NE. Retrieved 2021-06-25 00:46 UTC (2 hours ago):

TAF KENW 242344Z 2500/2524 19012G21KT P6SM OVC009 FM250500 19007KT 6SM -SHRA BR VCTS OVC009CB FM250900 18006KT 4SM -SHRA BR VCTS OVC005CB FM251600 26007KT P6SM OVC006 FM251900 25007KT P6SM OVC015